Saturday, July 21, 2018, 9:02 PM EDT
Back to Local

KDYL, Doylestown Airport

Location: Doylestown, PA, United States Lat: 40.333
Local Time: 9:02 PM EDT ( 1:02 GMT) Lon: -75.117
Time Zone: US/Eastern Elev: 393 ft

Show me the last for .
Show Decoded

2018-07-21 20:47 METAR KDYL 220047Z AUTO VRB06G16KT 10SM -RA OVC013 17/16 A2988 RMK AO2 P0005
                 T01670161 =
2018-07-21 19:54 METAR KDYL 212354Z AUTO 03009G16KT 010V080 9SM -RA FEW013 OVC023 17/16 A2990 RMK
                 AO2 SLP124 P0008 60030 T01670161 10222 20167 58021 =
2018-07-21 19:37 METAR KDYL 212337Z AUTO 04009G14KT 010V080 9SM -RA FEW013 BKN027 OVC033 17/16
                 A2991 RMK AO2 P0006 T01720161 =
2018-07-21 18:54 METAR KDYL 212254Z AUTO 04010G15KT 6SM RA BR FEW009 SCT016 OVC035 17/17 A2993
                 RMK AO2 SLP134 P0011 T01720167 =
2018-07-21 17:54 METAR KDYL 212154Z AUTO 03007KT 010V090 8SM RA FEW014 BKN050 OVC065 18/17 A2996
                 RMK AO2 SLP142 P0009 T01830172 =
2018-07-21 16:54 METAR KDYL 212054Z AUTO 00000KT 10SM -RA BKN050 BKN065 OVC095 20/17 A2997 RMK
                 AO2 RAB08 SLP145 P0002 60002 T02000167 56014 =
2018-07-21 15:54 METAR KDYL 211954Z AUTO VRB04KT 10SM OVC060 21/16 A2997 RMK AO2 SLP145 T02110156
                 =
2018-07-21 14:54 METAR KDYL 211854Z AUTO VRB04KT 10SM OVC060 22/16 A2999 RMK AO2 SLP153 T02170156
                 =
2018-07-21 13:54 METAR KDYL 211754Z AUTO VRB03KT 10SM BKN036 OVC070 23/16 A3001 RMK AO2 SLP158
                 60000 T02280161 10233 20200 56017 =
2018-07-21 12:54 METAR KDYL 211654Z AUTO VRB04KT 10SM FEW033 FEW080 SCT110 23/16 A3002 RMK AO2
                 RAB36E46 SLP161 P0000 T02280156 =
2018-07-21 11:54 METAR KDYL 211554Z AUTO VRB04KT 10SM FEW065 SCT100 22/16 A3005 RMK AO2 SLP171
                 T02220156 =
2018-07-21 10:54 METAR KDYL 211454Z AUTO VRB05KT 10SM SCT110 22/16 A3006 RMK AO2 SLP175 T02170156
                 53000 =
2018-07-21 09:54 METAR KDYL 211354Z AUTO VRB04KT 10SM BKN100 22/16 A3006 RMK AO2 SLP173 T02220161
                 =
2018-07-21 08:54 METAR KDYL 211254Z AUTO 00000KT 10SM CLR 21/16 A3006 RMK AO2 SLP173 T02060156 =
2018-07-21 07:54 METAR KDYL 211154Z AUTO 00000KT 10SM CLR 20/16 A3006 RMK AO2 SLP174 T02000156
                 10200 20161 56002 =
2018-07-21 06:54 METAR KDYL 211054Z AUTO VRB03KT 10SM CLR 17/16 A3006 RMK AO2 SLP175 T01720156 =
2018-07-21 05:54 METAR KDYL 210954Z AUTO 01003KT 10SM FEW032 16/15 A3006 RMK AO2 SLP175 T01610150
                 =
2018-07-21 04:54 METAR KDYL 210854Z AUTO 02003KT 10SM FEW033 16/16 A3006 RMK AO2 SLP176 T01610156
                 58008 =
2018-07-21 03:54 METAR KDYL 210754Z AUTO 00000KT 10SM FEW034 17/16 A3008 RMK AO2 SLP181 T01670156
                 =
2018-07-21 02:54 METAR KDYL 210654Z AUTO 03003KT 10SM CLR 17/16 A3008 RMK AO2 SLP182 T01720156 =
2018-07-21 01:54 METAR KDYL 210554Z AUTO 00000KT 10SM CLR 18/16 A3009 RMK AO2 SLP184 T01780156
                 10239 20178 56009 =
2018-07-21 00:54 METAR KDYL 210454Z AUTO 00000KT 10SM SCT031 18/16 A3010 RMK AO2 SLP187 T01830156
                 402830161 =
2018-07-20 23:54 METAR KDYL 210354Z AUTO 00000KT 10SM CLR 19/16 A3010 RMK AO2 SLP189 T01940156 =
2018-07-20 22:54 METAR KDYL 210254Z AUTO 13003KT 10SM CLR 20/16 A3011 RMK AO2 SLP193 T02000156
                 50008 =
2018-07-20 21:54 METAR KDYL 210154Z AUTO VRB03KT 10SM CLR 21/15 A3012 RMK AO2 SLP193 T02110150 =

Support USWX by starting your Amazon purchase here.